BIKFBIIS

Guest
Details From BIKF - Keflavik
To BIIS - Isafjordur
Flight Number -
Tags generated
Created
Modified
Stats Distance 125 nm / 232 km
Max Altitude 16,400 ft / 4,999 m
Waypoints 3
Social Downloads 1
Likes 0
Share VATSIM

Download

Looking for another format? Having issues loading an existing format? Contact us
Advertisement - Login to hide

Notes

Basic altitude profile: - Ascent Rate: 2500ft/min - Ascent Speed: 250kts - Cruise Altitude: 35000ft - Cruise Speed: 420kts - Descent Rate: 1500ft/min - Descent Speed: 250kts Options: - Use NATs: yes - Use PACOTS: yes - Use low airways: yes - Use high airways: yes

Route

BIKF SKOTT BIIS

ID Type Via Altitude Latitude Longitude Leg Dist Tot Dist Heading (true) Name
O BIKF APT - 0 ft / 0 m 63.98161˚ -22.61456˚ - 0 nm - Keflavik
SKOTT FIX - 16,400 ft / 4,999 m 64.78583˚ -22.87083˚ 48 nm 48 nm 352° / 352° -
O BIIS APT - 0 ft / 0 m 66.05810˚ -23.13520˚ 76 nm 125 nm 355° / 355° Isafjordur

Altitude Profile

Advertisement - Login to hide

BIKF

Details ICAO BIKF (KEF)
Name Keflavik
Region Iceland
Timezone Atlantic/Reykjavik (UTC+0.0)
Stats Elevation 170 ft / 52 m (AMSL)
Location 63.981612° -22.614563°
Runways 2
Magnetic Variation 14.065° W

METAR

BIKF 171730Z 16009KT 9999 FEW026 SCT055 BKN080 02/M00 Q1001

Decode

TAF

TAF BIKF 171331Z 1715/1815 24012KT 9000 -SHRASN SCT015CB BKN030 TX07/1803Z TN02/1715Z BECMG 1716/1718 18012KT BECMG 1718/1721 16020G30KT 4000 RADZ BKN010 OVC015 PROB40 1721/1803 16030G40KT 1200 DZ BR OVC006 BECMG 1803/1806 19015KT 9999 -RA SCT015 BKN030 TEMPO 1812/1815 5000 RADZ BR OVC012

Decode

Departure Runways

ID Width Length Bearing (true) Bearing (mag) Surface Threshold Offset Overrun Length
02 197 ft / 60 m 9,997 ft / 3,047 m 0.02° 14.09° Asphalt 0 ft / 0 m 492 ft / 150 m
11 197 ft / 60 m 10,022 ft / 3,055 m 89.97° 104.04° Asphalt 0 ft / 0 m 246 ft / 75 m
20 197 ft / 60 m 9,997 ft / 3,047 m 180.02° 194.09° Asphalt 0 ft / 0 m 98 ft / 30 m
29 197 ft / 60 m 10,022 ft / 3,055 m 270.02° 284.09° Asphalt 0 ft / 0 m 197 ft / 60 m

BIIS

Details ICAO BIIS (IFJ)
Name Isafjordur
Region Iceland
Timezone Unknown (UTC+0.0)
Stats Elevation 7 ft / 2 m (AMSL)
Location 66.058100° -23.135201°
Runways 1
Magnetic Variation 15.278° W

METAR

BIIS 171610Z 21008KT 9999 BKN030 01/M01 Q0999

Decode

TAF

Not found

Destination Runways

ID Width Length Bearing (true) Bearing (mag) Surface Threshold Offset Overrun Length
08 139 ft / 42 m 4,598 ft / 1,401 m 61.84° 77.12° Asphalt 0 ft / 0 m 0 ft / 0 m
26 139 ft / 42 m 4,598 ft / 1,401 m 241.86° 257.14° Asphalt 0 ft / 0 m 0 ft / 0 m

Approach Navaids

Runway Type Ident Frequency Range Bearing (true) Bearing (mag) Slope Elevation
26 Localiser IOG 110.10 MHz 18 nm / 33 km 312.00° 327.28° - 8 ft / 2 m (AMSL)

Popular Alternatives